Terminal Aerodrome Forecast
Issued by NWS

Home | Current Version | Previous Version | Text Only | Print | Product List | Glossary Off
Versions: 1 2 3 4 5 6 7 8 9 10 11 12 13 14

000
FTUS43 KGRB 240520
TAFAUW
TAF
KAUW 240520Z 2406/2506 21003KT P6SM SCT120
     FM241300 19010G17KT P6SM FEW035 BKN120
     FM242300 20007KT P6SM SCT120
     FM250400 19007KT P6SM SCT250 WS010/23020KT=

USA.gov is the U.S. government's official web portal to all federal, state and local government web resources and services.